SBGO/GYN METAR and TAF weather

Enter ICAO airport designator
Station Type Date Time Source
SBGO METAR 2018/12/15 05:00 UTC NOAA

SBGO 150500Z 29004KT 9999 FEW045 SCT100 20/17 Q1021


Station Type Date Time Source
SBGO Decoded METAR 2018/12/15 05:00 UTC NOAA

Goiania Aeroporto , Brazil (SBGO) 16-38S 049-13W
Dec 15, 2018 - 12:00 AM EST / 2018.12.15 0500 UTC
Wind: from the WNW (290 degrees) at 5 MPH (4 KT):0
Visibility: greater than 7 mile(s):0
Sky conditions: partly cloudy
Temperature: 68 F (20 C)
Dew Point: 62 F (17 C)
Relative Humidity: 82%
Pressure (altimeter): 30.15 in. Hg (1021 hPa)
ob: SBGO 150500Z 29004KT 9999 FEW045 SCT100 20/17 Q1021
cycle: 5

Station Type Date Time Source
SBGO TAF 2018/12/15 06:15 UTC NOAA

TAF TAF SBGO 150400Z 1506/1606 09005KT 8000 NSC TN19/1508Z TX30/1518Z ECMG 1515/1517 9999 SCT035 PROB30 1520/1522 SHRA FEW035 FEW045TCU
BECMG 1600/1602 CAVOK
RMK PDS


Example: see airport list